| time (UTC) | temp F | wind direction | speed MPH | gust MPH | rain 1hr in | rain 24hr in | rain mn in | humidity % | barometer mb |
| 20260510191701 | 57 | 354 | 6.0 | 12.0 | 0.00 | 0.00 | 0.00 | 47 | 1019.1 |
| 20260510191204 | 56 | 344 | 6.0 | 10.0 | 0.00 | 0.00 | 0.00 | 49 | 1019.1 |
| 20260510190204 | 57 | 344 | 9.0 | 9.0 | 0.00 | 0.00 | 0.00 | 49 | 1019.0 |
| 20260510185702 | 57 | 344 | 8.0 | 11.0 | 0.00 | 0.00 | 0.00 | 49 | 1019.0 |
| 20260510185204 | 56 | 351 | 8.0 | 17.0 | 0.00 | 0.00 | 0.00 | 48 | 1019.1 |
| 20260510184701 | 57 | 305 | 7.0 | 11.0 | 0.00 | 0.00 | 0.00 | 50 | 1019.1 |
| 20260510183702 | 56 | 291 | 7.0 | 12.0 | 0.00 | 0.00 | 0.00 | 49 | 1019.2 |
| 20260510183201 | 55 | 336 | 8.0 | 16.0 | 0.00 | 0.00 | 0.00 | 49 | 1019.1 |
| 20260510182207 | 56 | 4 | 4.0 | 11.0 | 0.00 | 0.00 | 0.00 | 52 | 1019.2 |
| 20260510181701 | 56 | 271 | 0.0 | 6.0 | 0.00 | 0.00 | 0.00 | 51 | 1019.3 |
| 20260510181206 | 56 | 320 | 6.0 | 11.0 | 0.00 | 0.00 | 0.00 | 52 | 1019.3 |
| 20260510180702 | 56 | 11 | 5.0 | 11.0 | 0.00 | 0.00 | 0.00 | 51 | 1019.3 |
| 20260510180202 | 55 | 57 | 6.0 | 13.0 | 0.00 | 0.00 | 0.00 | 53 | 1019.3 |
| 20260510175706 | 55 | 71 | 8.0 | 9.0 | 0.00 | 0.00 | 0.00 | 52 | 1019.4 |
| 20260510175206 | 56 | 336 | 4.0 | 7.0 | 0.00 | 0.00 | 0.00 | 52 | 1019.3 |
| 20260510174701 | 55 | 296 | 5.0 | 5.0 | 0.00 | 0.00 | 0.00 | 54 | 1019.3 |
| 20260510173701 | 55 | 340 | 11.0 | 12.0 | 0.00 | 0.00 | 0.00 | 53 | 1019.2 |
| 20260510173201 | 55 | 278 | 6.0 | 16.0 | 0.00 | 0.00 | 0.00 | 52 | 1019.3 |
| 20260510172707 | 55 | 322 | 8.0 | 13.0 | 0.00 | 0.00 | 0.00 | 52 | 1019.4 |
| 20260510171701 | 54 | 40 | 6.0 | 11.0 | 0.00 | 0.00 | 0.00 | 57 | 1019.3 |
| 20260510171205 | 55 | 316 | 10.0 | 19.0 | 0.00 | 0.00 | 0.00 | 53 | 1019.3 |
| 20260510170202 | 54 | 288 | 3.0 | 9.0 | 0.00 | 0.00 | 0.00 | 56 | 1019.4 |
| 20260510165204 | 54 | 358 | 7.0 | 14.0 | 0.00 | 0.00 | 0.00 | 57 | 1019.4 |
| 20260510164701 | 54 | 330 | 8.0 | 13.0 | 0.00 | 0.00 | 0.00 | 56 | 1019.4 |
| 20260510164201 | 54 | 319 | 9.0 | 12.0 | 0.00 | 0.00 | 0.00 | 58 | 1019.4 |
| 20260510163701 | 54 | 351 | 7.0 | 13.0 | 0.00 | 0.00 | 0.00 | 56 | 1019.5 |
| 20260510163203 | 54 | 344 | 3.0 | 12.0 | 0.00 | 0.00 | 0.00 | 56 | 1019.5 |
| 20260510162701 | 53 | 22 | 8.0 | 13.0 | 0.00 | 0.00 | 0.00 | 57 | 1019.4 |
| 20260510162203 | 53 | 282 | 2.0 | 7.0 | 0.00 | 0.00 | 0.00 | 58 | 1019.4 |
| 20260510161701 | 53 | 340 | 12.0 | 13.0 | 0.00 | 0.00 | 0.00 | 59 | 1019.4 |
| 20260510161202 | 53 | 278 | 3.0 | 11.0 | 0.00 | 0.00 | 0.00 | 58 | 1019.4 |
| 20260510160205 | 53 | 310 | 0.0 | 3.0 | 0.00 | 0.00 | 0.00 | 58 | 1019.3 |
| 20260510155703 | 53 | 351 | 9.0 | 10.0 | 0.00 | 0.00 | 0.00 | 57 | 1019.4 |
| 20260510155255 | 52 | 327 | 6.0 | 9.0 | 0.00 | 0.00 | 0.00 | 59 | 1019.3 |
| 20260510155207 | 52 | 327 | 6.0 | 9.0 | 0.00 | 0.00 | 0.00 | 59 | 1019.3 |
| 20260510154701 | 52 | 296 | 7.0 | 15.0 | 0.00 | 0.00 | 0.00 | 59 | 1019.3 |
| 20260510154201 | 53 | 320 | 6.0 | 11.0 | 0.00 | 0.00 | 0.00 | 56 | 1019.3 |
| 20260510153701 | 53 | 344 | 10.0 | 12.0 | 0.00 | 0.00 | 0.00 | 58 | 1019.2 |
| 20260510153201 | 53 | 344 | 3.0 | 8.0 | 0.00 | 0.00 | 0.00 | 58 | 1019.2 |
| 20260510152711 | 53 | 345 | 5.0 | 11.0 | 0.00 | 0.00 | 0.00 | 57 | 1019.2 |
| 20260510152203 | 53 | 1 | 8.0 | 14.0 | 0.00 | 0.00 | 0.00 | 57 | 1019.2 |
| 20260510151701 | 53 | 28 | 6.0 | 8.0 | 0.00 | 0.00 | 0.00 | 59 | 1019.2 |
| 20260510151201 | 52 | 358 | 5.0 | 12.0 | 0.00 | 0.00 | 0.00 | 58 | 1019.2 |
| 20260510150201 | 52 | 331 | 12.0 | 12.0 | 0.00 | 0.00 | 0.00 | 59 | 1019.1 |
| 20260510145701 | 53 | 331 | 7.0 | 9.0 | 0.00 | 0.00 | 0.00 | 60 | 1019.1 |
| 20260510145208 | 52 | 271 | 3.0 | 5.0 | 0.00 | 0.00 | 0.00 | 60 | 1019.2 |
| 20260510144701 | 52 | 343 | 3.0 | 12.0 | 0.00 | 0.00 | 0.00 | 60 | 1019.1 |
| 20260510144201 | 52 | 11 | 4.0 | 11.0 | 0.00 | 0.00 | 0.00 | 55 | 1019.2 |
| 20260510143701 | 52 | 334 | 5.0 | 9.0 | 0.00 | 0.00 | 0.00 | 60 | 1019.2 |
| 20260510143201 | 52 | 15 | 6.0 | 7.0 | 0.00 | 0.00 | 0.00 | 63 | 1019.1 |
| 20260510142701 | 51 | 22 | 3.0 | 10.0 | 0.00 | 0.00 | 0.00 | 61 | 1019.1 |
| 20260510142255 | 51 | 4 | 6.0 | 8.0 | 0.00 | 0.00 | 0.00 | 61 | 1019.1 |
| 20260510142203 | 51 | 4 | 6.0 | 8.0 | 0.00 | 0.00 | 0.00 | 61 | 1019.1 |
| 20260510141701 | 51 | 355 | 6.0 | 11.0 | 0.00 | 0.00 | 0.00 | 59 | 1019.1 |
| 20260510141201 | 51 | 358 | 0.0 | 7.0 | 0.00 | 0.00 | 0.00 | 62 | 1019.1 |
| 20260510140702 | 51 | 32 | 5.0 | 8.0 | 0.00 | 0.00 | 0.00 | 63 | 1019.1 |
| 20260510135700 | 49 | 14 | 0.0 | 0.0 | 0.00 | 0.00 | 0.00 | 67 | 1019.1 |
| 20260510135205 | 49 | 14 | 0.0 | 0.0 | 0.00 | 0.00 | 0.00 | 68 | 1019.1 |
| 20260510134203 | 49 | 14 | 0.0 | 0.0 | 0.00 | 0.00 | 0.00 | 69 | 1019.1 |
| 20260510133701 | 49 | 14 | 0.0 | 0.0 | 0.00 | 0.00 | 0.00 | 70 | 1019.1 |
| 20260510133201 | 48 | 14 | 0.0 | 0.0 | 0.00 | 0.00 | 0.00 | 69 | 1019.1 |
| 20260510132702 | 48 | 14 | 0.0 | 0.0 | 0.00 | 0.00 | 0.00 | 69 | 1019.1 |
| 20260510132204 | 48 | 14 | 0.0 | 0.0 | 0.00 | 0.00 | 0.00 | 69 | 1019.1 |
| 20260510131701 | 48 | 14 | 0.0 | 0.0 | 0.00 | 0.00 | 0.00 | 71 | 1019.0 |
| 20260510131202 | 47 | 14 | 0.0 | 0.0 | 0.00 | 0.00 | 0.00 | 72 | 1019.0 |
| 20260510125704 | 47 | 14 | 0.0 | 0.0 | 0.00 | 0.00 | 0.00 | 75 | 1018.8 |
| 20260510125207 | 46 | 14 | 0.0 | 0.0 | 0.00 | 0.00 | 0.00 | 75 | 1018.8 |
| 20260510124700 | 46 | 14 | 0.0 | 0.0 | 0.00 | 0.00 | 0.00 | 77 | 1018.8 |
| 20260510124201 | 45 | 14 | 0.0 | 0.0 | 0.00 | 0.00 | 0.00 | 78 | 1018.8 |
| 20260510123700 | 45 | 14 | 0.0 | 0.0 | 0.00 | 0.00 | 0.00 | 79 | 1018.7 |
| 20260510123201 | 45 | 14 | 0.0 | 0.0 | 0.00 | 0.00 | 0.00 | 80 | 1018.7 |
| 20260510122700 | 44 | 14 | 0.0 | 0.0 | 0.00 | 0.00 | 0.00 | 80 | 1018.6 |
| 20260510122315 | 44 | 14 | 0.0 | 0.0 | 0.00 | 0.00 | 0.00 | 80 | 1018.6 |
| 20260510122202 | 44 | 14 | 0.0 | 0.0 | 0.00 | 0.00 | 0.00 | 80 | 1018.6 |
| 20260510121700 | 43 | 14 | 0.0 | 0.0 | 0.00 | 0.00 | 0.00 | 80 | 1018.6 |
| 20260510121200 | 43 | 14 | 0.0 | 0.0 | 0.00 | 0.00 | 0.00 | 80 | 1018.3 |
| 20260510120700 | 43 | 14 | 0.0 | 0.0 | 0.00 | 0.00 | 0.00 | 81 | 1018.2 |
| 20260510120206 | 42 | 14 | 0.0 | 0.0 | 0.00 | 0.00 | 0.00 | 81 | 1018.1 |
| 20260510115700 | 42 | 14 | 0.0 | 0.0 | 0.00 | 0.00 | 0.00 | 81 | 1018.0 |
| 20260510115202 | 42 | 14 | 0.0 | 0.0 | 0.00 | 0.00 | 0.00 | 81 | 1018.0 |
| 20260510114701 | 42 | 14 | 0.0 | 0.0 | 0.00 | 0.00 | 0.00 | 81 | 1018.0 |
| 20260510113700 | 41 | 14 | 0.0 | 0.0 | 0.00 | 0.00 | 0.00 | 82 | 1017.8 |
| 20260510113200 | 41 | 14 | 0.0 | 0.0 | 0.00 | 0.00 | 0.00 | 82 | 1017.7 |
| 20260510112700 | 41 | 14 | 0.0 | 0.0 | 0.00 | 0.00 | 0.00 | 82 | 1017.6 |
| 20260510112201 | 41 | 14 | 0.0 | 0.0 | 0.00 | 0.00 | 0.00 | 83 | 1017.6 |
| 20260510111700 | 41 | 14 | 0.0 | 0.0 | 0.00 | 0.00 | 0.00 | 83 | 1017.5 |
| 20260510111200 | 41 | 14 | 0.0 | 0.0 | 0.00 | 0.00 | 0.00 | 83 | 1017.5 |
| 20260510110700 | 41 | 14 | 0.0 | 0.0 | 0.00 | 0.00 | 0.00 | 83 | 1017.4 |
| 20260510110200 | 41 | 14 | 0.0 | 0.0 | 0.00 | 0.00 | 0.00 | 83 | 1017.4 |
| 20260510105702 | 41 | 14 | 0.0 | 0.0 | 0.00 | 0.00 | 0.00 | 83 | 1017.3 |
| 20260510105206 | 41 | 14 | 0.0 | 0.0 | 0.00 | 0.00 | 0.00 | 83 | 1017.2 |
| 20260510104700 | 40 | 14 | 0.0 | 0.0 | 0.00 | 0.00 | 0.00 | 83 | 1017.1 |
| 20260510104200 | 40 | 14 | 0.0 | 0.0 | 0.00 | 0.00 | 0.00 | 83 | 1017.1 |
| 20260510103755 | 40 | 14 | 0.0 | 0.0 | 0.00 | 0.00 | 0.00 | 83 | 1017.0 |
| 20260510103700 | 40 | 14 | 0.0 | 0.0 | 0.00 | 0.00 | 0.00 | 83 | 1017.0 |
| 20260510103200 | 40 | 14 | 0.0 | 0.0 | 0.00 | 0.00 | 0.00 | 82 | 1016.9 |
| 20260510102207 | 40 | 14 | 0.0 | 0.0 | 0.00 | 0.00 | 0.00 | 82 | 1016.8 |
| 20260510101731 | 41 | 14 | 0.0 | 0.0 | 0.00 | 0.00 | 0.00 | 81 | 1016.9 |
| 20260510101700 | 41 | 14 | 0.0 | 0.0 | 0.00 | 0.00 | 0.00 | 81 | 1016.9 |
| 20260510101202 | 41 | 14 | 0.0 | 0.0 | 0.00 | 0.00 | 0.00 | 81 | 1016.8 |
| 20260510100700 | 41 | 14 | 0.0 | 0.0 | 0.00 | 0.00 | 0.00 | 81 | 1016.5 |
| 20260510095700 | 40 | 14 | 2.0 | 5.0 | 0.00 | 0.00 | 0.00 | 81 | 1016.5 |
| 20260510094200 | 41 | 165 | 0.0 | 0.0 | 0.00 | 0.00 | 0.00 | 79 | 1016.3 |
| 20260510093700 | 41 | 165 | 0.0 | 0.0 | 0.00 | 0.00 | 0.00 | 80 | 1016.0 |
| 20260510093200 | 41 | 165 | 0.0 | 3.0 | 0.00 | 0.00 | 0.00 | 79 | 1016.1 |
| 20260510092813 | 41 | 313 | 0.0 | 0.0 | 0.00 | 0.00 | 0.00 | 78 | 1016.2 |
| 20260510092700 | 41 | 313 | 0.0 | 0.0 | 0.00 | 0.00 | 0.00 | 78 | 1016.2 |
| 20260510091700 | 41 | 313 | 0.0 | 0.0 | 0.00 | 0.00 | 0.00 | 78 | 1016.0 |
| 20260510091200 | 41 | 313 | 0.0 | 0.0 | 0.00 | 0.00 | 0.00 | 79 | 1015.9 |
| 20260510090704 | 41 | 313 | 0.0 | 0.0 | 0.00 | 0.00 | 0.00 | 78 | 1015.9 |
| 20260510090200 | 42 | 313 | 0.0 | 0.0 | 0.00 | 0.00 | 0.00 | 78 | 1015.8 |
| 20260510085732 | 42 | 313 | 0.0 | 0.0 | 0.00 | 0.00 | 0.00 | 77 | 1015.8 |
| 20260510085700 | 42 | 313 | 0.0 | 0.0 | 0.00 | 0.00 | 0.00 | 77 | 1015.8 |
| 20260510085207 | 42 | 313 | 0.0 | 0.0 | 0.00 | 0.00 | 0.00 | 77 | 1015.8 |
| 20260510084733 | 42 | 313 | 0.0 | 0.0 | 0.00 | 0.00 | 0.00 | 78 | 1015.6 |
| 20260510084700 | 42 | 313 | 0.0 | 0.0 | 0.00 | 0.00 | 0.00 | 78 | 1015.6 |
| 20260510083700 | 42 | 313 | 0.0 | 0.0 | 0.00 | 0.00 | 0.00 | 78 | 1015.5 |
| 20260510083201 | 42 | 313 | 0.0 | 0.0 | 0.00 | 0.00 | 0.00 | 77 | 1015.5 |
| 20260510082207 | 42 | 313 | 0.0 | 0.0 | 0.00 | 0.00 | 0.00 | 76 | 1015.4 |
| 20260510081700 | 42 | 313 | 0.0 | 0.0 | 0.00 | 0.00 | 0.00 | 76 | 1015.3 |
| 20260510081201 | 42 | 313 | 0.0 | 0.0 | 0.00 | 0.00 | 0.00 | 76 | 1015.2 |
| 20260510080700 | 42 | 313 | 0.0 | 0.0 | 0.00 | 0.00 | 0.00 | 76 | 1015.2 |
| 20260510080201 | 42 | 313 | 0.0 | 0.0 | 0.00 | 0.00 | 0.00 | 77 | 1015.1 |
| 20260510075701 | 42 | 313 | 0.0 | 0.0 | 0.00 | 0.00 | 0.00 | 77 | 1015.1 |
| 20260510075215 | 42 | 313 | 0.0 | 0.0 | 0.00 | 0.00 | 0.00 | 77 | 1015.1 |
| 20260510074700 | 42 | 313 | 0.0 | 0.0 | 0.00 | 0.00 | 0.00 | 76 | 1015.1 |
| 20260510074200 | 42 | 313 | 0.0 | 0.0 | 0.00 | 0.00 | 0.00 | 74 | 1015.0 |
| 20260510073707 | 43 | 313 | 0.0 | 0.0 | 0.00 | 0.00 | 0.00 | 73 | 1015.0 |
| 20260510073201 | 43 | 313 | 0.0 | 0.0 | 0.00 | 0.00 | 0.00 | 73 | 1015.0 |
| 20260510071705 | 44 | 313 | 0.0 | 0.0 | 0.00 | 0.00 | 0.00 | 71 | 1015.0 |
| 20260510071201 | 44 | 313 | 0.0 | 0.0 | 0.00 | 0.00 | 0.00 | 70 | 1015.0 |
| 20260510070702 | 45 | 313 | 0.0 | 0.0 | 0.00 | 0.00 | 0.00 | 70 | 1015.1 |
| 20260510070200 | 45 | 313 | 0.0 | 0.0 | 0.00 | 0.00 | 0.00 | 70 | 1015.1 |
| 20260510065703 | 45 | 313 | 0.0 | 0.0 | 0.00 | 0.00 | 0.00 | 70 | 1015.0 |
| 20260510065210 | 45 | 313 | 0.0 | 0.0 | 0.00 | 0.00 | 0.00 | 69 | 1015.0 |
| 20260510064201 | 45 | 313 | 0.0 | 0.0 | 0.00 | 0.00 | 0.00 | 69 | 1014.8 |
| 20260510063200 | 46 | 313 | 0.0 | 0.0 | 0.00 | 0.00 | 0.00 | 66 | 1015.0 |
| 20260510062206 | 46 | 313 | 0.0 | 0.0 | 0.00 | 0.00 | 0.00 | 65 | 1014.7 |
| 20260510061701 | 47 | 313 | 0.0 | 0.0 | 0.00 | 0.00 | 0.00 | 65 | 1014.7 |
| 20260510061201 | 47 | 313 | 0.0 | 0.0 | 0.00 | 0.00 | 0.00 | 65 | 1014.7 |
| 20260510060700 | 47 | 313 | 0.0 | 0.0 | 0.00 | 0.00 | 0.00 | 64 | 1014.7 |
| 20260510060201 | 47 | 313 | 0.0 | 0.0 | 0.00 | 0.00 | 0.00 | 65 | 1014.6 |
| 20260510055204 | 47 | 313 | 0.0 | 0.0 | 0.00 | 0.00 | 0.00 | 64 | 1014.7 |
| 20260510054701 | 47 | 313 | 0.0 | 0.0 | 0.00 | 0.00 | 0.00 | 65 | 1014.6 |
| 20260510054202 | 47 | 313 | 0.0 | 0.0 | 0.00 | 0.00 | 0.00 | 64 | 1014.6 |
| 20260510053701 | 47 | 313 | 0.0 | 0.0 | 0.00 | 0.00 | 0.00 | 64 | 1014.5 |
| 20260510053201 | 47 | 313 | 0.0 | 0.0 | 0.00 | 0.00 | 0.00 | 63 | 1014.5 |
| 20260510052702 | 47 | 313 | 0.0 | 0.0 | 0.00 | 0.00 | 0.00 | 63 | 1014.4 |
| 20260510052202 | 47 | 313 | 0.0 | 0.0 | 0.00 | 0.00 | 0.00 | 62 | 1014.3 |
| 20260510051701 | 48 | 313 | 0.0 | 0.0 | 0.00 | 0.00 | 0.00 | 62 | 1014.3 |
| 20260510051201 | 48 | 313 | 0.0 | 0.0 | 0.00 | 0.00 | 0.00 | 62 | 1014.2 |
| 20260510050701 | 49 | 313 | 0.0 | 0.0 | 0.00 | 0.00 | 0.00 | 60 | 1014.2 |
| 20260510050201 | 49 | 313 | 0.0 | 0.0 | 0.00 | 0.00 | 0.00 | 60 | 1014.3 |
| 20260510045711 | 50 | 313 | 0.0 | 0.0 | 0.00 | 0.00 | 0.00 | 59 | 1014.2 |
| 20260510045202 | 50 | 313 | 0.0 | 0.0 | 0.00 | 0.00 | 0.00 | 57 | 1014.3 |
| 20260510044701 | 50 | 313 | 0.0 | 0.0 | 0.00 | 0.00 | 0.00 | 57 | 1014.3 |
| 20260510044201 | 50 | 313 | 0.0 | 0.0 | 0.00 | 0.00 | 0.00 | 57 | 1014.3 |
| 20260510043701 | 50 | 274 | 0.0 | 0.0 | 0.00 | 0.00 | 0.00 | 57 | 1014.3 |
| 20260510043202 | 50 | 274 | 0.0 | 0.0 | 0.00 | 0.00 | 0.00 | 56 | 1014.3 |
| 20260510042202 | 51 | 326 | 2.0 | 6.0 | 0.00 | 0.00 | 0.00 | 56 | 1014.2 |
| 20260510041701 | 51 | 289 | 0.0 | 5.0 | 0.00 | 0.00 | 0.00 | 56 | 1014.1 |
| 20260510041201 | 51 | 336 | 0.0 | 0.0 | 0.00 | 0.00 | 0.00 | 56 | 1014.1 |
| 20260510040701 | 51 | 309 | 3.0 | 5.0 | 0.00 | 0.00 | 0.00 | 55 | 1014.0 |
| 20260510040201 | 51 | 300 | 4.0 | 6.0 | 0.00 | 0.00 | 0.00 | 55 | 1014.0 |
| 20260510035701 | 51 | 329 | 0.0 | 3.0 | 0.00 | 0.00 | 0.00 | 55 | 1013.9 |
| 20260510035202 | 51 | 306 | 0.0 | 0.0 | 0.00 | 0.00 | 0.00 | 55 | 1013.8 |
| 20260510034701 | 52 | 306 | 0.0 | 0.0 | 0.00 | 0.00 | 0.00 | 54 | 1013.7 |
| 20260510034201 | 52 | 306 | 0.0 | 0.0 | 0.00 | 0.00 | 0.00 | 54 | 1013.7 |
| 20260510033806 | 52 | 306 | 0.0 | 0.0 | 0.00 | 0.00 | 0.00 | 53 | 1013.6 |
| 20260510033716 | 52 | 306 | 0.0 | 0.0 | 0.00 | 0.00 | 0.00 | 53 | 1013.6 |
| 20260510033201 | 52 | 306 | 0.0 | 3.0 | 0.00 | 0.00 | 0.00 | 53 | 1013.6 |
| 20260510032703 | 52 | 312 | 5.0 | 6.0 | 0.00 | 0.00 | 0.00 | 53 | 1013.5 |
| 20260510032202 | 52 | 338 | 0.0 | 5.0 | 0.00 | 0.00 | 0.00 | 52 | 1013.5 |
| 20260510031701 | 53 | 293 | 0.0 | 5.0 | 0.00 | 0.00 | 0.00 | 52 | 1013.4 |
| 20260510030701 | 53 | 299 | 3.0 | 6.0 | 0.00 | 0.00 | 0.00 | 51 | 1013.2 |
| 20260510030200 | 53 | 327 | 2.0 | 5.0 | 0.00 | 0.00 | 0.00 | 52 | 1013.2 |
| 20260510025202 | 53 | 257 | 0.0 | 5.0 | 0.00 | 0.00 | 0.00 | 52 | 1013.1 |
| 20260510024201 | 53 | 272 | 0.0 | 6.0 | 0.00 | 0.00 | 0.00 | 51 | 1012.9 |
| 20260510023700 | 53 | 324 | 0.0 | 0.0 | 0.00 | 0.00 | 0.00 | 51 | 1012.8 |
| 20260510023200 | 54 | 324 | 0.0 | 0.0 | 0.00 | 0.00 | 0.00 | 50 | 1012.7 |
| 20260510022700 | 54 | 324 | 0.0 | 0.0 | 0.00 | 0.00 | 0.00 | 50 | 1012.5 |
| 20260510021700 | 54 | 330 | 3.0 | 5.0 | 0.00 | 0.00 | 0.00 | 49 | 1012.2 |
| 20260510021200 | 54 | 306 | 0.0 | 5.0 | 0.00 | 0.00 | 0.00 | 48 | 1012.2 |
| 20260510015702 | 55 | 286 | 3.0 | 9.0 | 0.00 | 0.00 | 0.00 | 47 | 1011.9 |
| 20260510014201 | 55 | 293 | 4.0 | 12.0 | 0.00 | 0.00 | 0.00 | 46 | 1011.6 |
| 20260510013201 | 55 | 333 | 7.0 | 7.0 | 0.00 | 0.00 | 0.00 | 46 | 1011.5 |
| 20260510012702 | 55 | 264 | 0.0 | 5.0 | 0.00 | 0.00 | 0.00 | 46 | 1011.4 |
| 20260510012202 | 55 | 298 | 3.0 | 3.0 | 0.00 | 0.00 | 0.00 | 45 | 1011.2 |
| 20260510011700 | 56 | 310 | 6.0 | 14.0 | 0.00 | 0.00 | 0.00 | 45 | 1011.1 |
| 20260510011200 | 56 | 322 | 6.0 | 12.0 | 0.00 | 0.00 | 0.00 | 45 | 1011.0 |
| 20260510010700 | 56 | 344 | 9.0 | 12.0 | 0.00 | 0.00 | 0.00 | 44 | 1010.9 |
| 20260510010201 | 56 | 326 | 7.0 | 15.0 | 0.00 | 0.00 | 0.00 | 44 | 1010.8 |
| 20260510005202 | 56 | 303 | 0.0 | 8.0 | 0.00 | 0.00 | 0.00 | 44 | 1010.7 |
| 20260510004805 | 57 | 330 | 9.0 | 13.0 | 0.00 | 0.00 | 0.00 | 44 | 1010.6 |
| 20260510004700 | 57 | 330 | 9.0 | 13.0 | 0.00 | 0.00 | 0.00 | 44 | 1010.6 |
| 20260510004200 | 56 | 324 | 0.0 | 15.0 | 0.00 | 0.00 | 0.00 | 44 | 1010.6 |
| 20260510003701 | 57 | 326 | 5.0 | 12.0 | 0.00 | 0.00 | 0.00 | 44 | 1010.6 |
| 20260510003200 | 57 | 319 | 9.0 | 16.0 | 0.00 | 0.00 | 0.00 | 42 | 1010.5 |
| 20260510002202 | 58 | 1 | 6.0 | 9.0 | 0.00 | 0.00 | 0.00 | 42 | 1010.3 |
| 20260510001700 | 58 | 261 | 6.0 | 16.0 | 0.00 | 0.00 | 0.00 | 41 | 1010.3 |
| 20260510001200 | 58 | 345 | 7.0 | 12.0 | 0.00 | 0.00 | 0.00 | 42 | 1010.3 |
| 20260510000706 | 58 | 310 | 10.0 | 17.0 | 0.00 | 0.00 | 0.00 | 42 | 1010.2 |
| 20260510000200 | 58 | 344 | 13.0 | 13.0 | 0.00 | 0.00 | 0.00 | 42 | 1010.1 |
| 20260509235202 | 58 | 337 | 9.0 | 13.0 | 0.00 | 0.00 | 0.00 | 42 | 1010.0 |
| 20260509234700 | 58 | 312 | 6.0 | 11.0 | 0.00 | 0.00 | 0.00 | 41 | 1009.9 |
| 20260509234200 | 59 | 302 | 4.0 | 16.0 | 0.00 | 0.00 | 0.00 | 41 | 1009.9 |
| 20260509233702 | 58 | 1 | 4.0 | 14.0 | 0.00 | 0.00 | 0.00 | 42 | 1009.8 |
| 20260509233200 | 58 | 341 | 4.0 | 13.0 | 0.00 | 0.00 | 0.00 | 41 | 1009.8 |
| 20260509232700 | 58 | 355 | 4.0 | 14.0 | 0.00 | 0.00 | 0.00 | 40 | 1009.7 |
| 20260509232202 | 59 | 320 | 7.0 | 13.0 | 0.00 | 0.00 | 0.00 | 40 | 1009.7 |
| 20260509231700 | 59 | 320 | 5.0 | 11.0 | 0.00 | 0.00 | 0.00 | 42 | 1009.6 |
| 20260509231200 | 59 | 306 | 13.0 | 13.0 | 0.00 | 0.00 | 0.00 | 42 | 1009.6 |
| 20260509230700 | 58 | 299 | 9.0 | 11.0 | 0.00 | 0.00 | 0.00 | 42 | 1009.5 |
| 20260509224701 | 58 | 295 | 8.0 | 15.0 | 0.00 | 0.00 | 0.00 | 41 | 1009.2 |
| 20260509224200 | 58 | 327 | 5.0 | 10.0 | 0.00 | 0.00 | 0.00 | 42 | 1009.1 |
| 20260509223700 | 59 | 239 | 5.0 | 15.0 | 0.00 | 0.00 | 0.00 | 41 | 1009.1 |
| 20260509223200 | 58 | 293 | 3.0 | 10.0 | 0.00 | 0.00 | 0.00 | 42 | 1009.0 |
| 20260509222702 | 57 | 309 | 11.0 | 18.0 | 0.00 | 0.00 | 0.00 | 41 | 1009.0 |
| 20260509222206 | 58 | 8 | 11.0 | 20.0 | 0.00 | 0.00 | 0.00 | 40 | 1009.0 |
| 20260509221700 | 58 | 0 | 6.0 | 19.0 | 0.00 | 0.00 | 0.00 | 41 | 1008.8 |
| 20260509221201 | 58 | 347 | 5.0 | 14.0 | 0.00 | 0.00 | 0.00 | 41 | 1008.9 |
| 20260509220700 | 59 | 15 | 12.0 | 16.0 | 0.00 | 0.00 | 0.00 | 40 | 1008.8 |
| 20260509220200 | 59 | 324 | 17.0 | 17.0 | 0.00 | 0.00 | 0.00 | 41 | 1008.8 |
| 20260509215206 | 59 | 306 | 10.0 | 16.0 | 0.00 | 0.00 | 0.00 | 41 | 1008.8 |
| 20260509214700 | 59 | 0 | 5.0 | 13.0 | 0.00 | 0.00 | 0.00 | 43 | 1008.6 |
| 20260509214200 | 59 | 358 | 0.0 | 13.0 | 0.00 | 0.00 | 0.00 | 43 | 1008.7 |
| 20260509213700 | 58 | 315 | 6.0 | 14.0 | 0.00 | 0.00 | 0.00 | 42 | 1008.7 |
| 20260509212700 | 58 | 327 | 6.0 | 18.0 | 0.00 | 0.00 | 0.00 | 40 | 1008.7 |
| 20260509212202 | 59 | 299 | 7.0 | 16.0 | 0.00 | 0.00 | 0.00 | 42 | 1008.5 |
| 20260509211701 | 58 | 309 | 2.0 | 17.0 | 0.00 | 0.00 | 0.00 | 41 | 1008.6 |
| 20260509211200 | 58 | 334 | 7.0 | 17.0 | 0.00 | 0.00 | 0.00 | 41 | 1008.5 |
| 20260509210700 | 57 | 11 | 13.0 | 24.0 | 0.00 | 0.00 | 0.00 | 43 | 1008.5 |
| 20260509210200 | 59 | 305 | 20.0 | 22.0 | 0.00 | 0.00 | 0.00 | 41 | 1008.6 |
| 20260509205701 | 58 | 352 | 9.0 | 13.0 | 0.00 | 0.00 | 0.00 | 42 | 1008.5 |
| 20260509205202 | 58 | 302 | 6.0 | 13.0 | 0.00 | 0.00 | 0.00 | 43 | 1008.5 |
| 20260509204700 | 58 | 313 | 6.0 | 11.0 | 0.00 | 0.00 | 0.00 | 43 | 1008.4 |
| 20260509204200 | 58 | 322 | 5.0 | 14.0 | 0.00 | 0.00 | 0.00 | 42 | 1008.5 |
| 20260509203700 | 58 | 329 | 9.0 | 25.0 | 0.00 | 0.00 | 0.00 | 40 | 1008.6 |
| 20260509203200 | 58 | 326 | 0.0 | 17.0 | 0.00 | 0.00 | 0.00 | 43 | 1008.4 |
| 20260509202201 | 58 | 305 | 9.0 | 11.0 | 0.00 | 0.00 | 0.00 | 42 | 1008.3 |
| 20260509201700 | 59 | 333 | 0.0 | 14.0 | 0.00 | 0.00 | 0.00 | 45 | 1008.4 |
| 20260509200701 | 57 | 343 | 9.0 | 15.0 | 0.00 | 0.00 | 0.00 | 44 | 1008.3 |
| 20260509200231 | 57 | 8 | 12.0 | 19.0 | 0.00 | 0.00 | 0.00 | 43 | 1008.4 |
| 20260509200200 | 57 | 8 | 12.0 | 19.0 | 0.00 | 0.00 | 0.00 | 43 | 1008.4 |
| 20260509195206 | 58 | 334 | 8.0 | 14.0 | 0.00 | 0.00 | 0.00 | 45 | 1008.2 |
| 20260509194700 | 58 | 331 | 6.0 | 12.0 | 0.00 | 0.00 | 0.00 | 45 | 1008.2 |
| 20260509194200 | 58 | 344 | 6.0 | 13.0 | 0.00 | 0.00 | 0.00 | 43 | 1008.3 |
| 20260509193700 | 58 | 327 | 6.0 | 15.0 | 0.00 | 0.00 | 0.00 | 44 | 1008.0 |
| 20260509193200 | 57 | 251 | 9.0 | 10.0 | 0.00 | 0.00 | 0.00 | 45 | 1008.0 |
| 20260509192700 | 57 | 299 | 5.0 | 18.0 | 0.00 | 0.00 | 0.00 | 44 | 1008.2 |
| 20260509192201 | 57 | 0 | 12.0 | 20.0 | 0.00 | 0.00 | 0.00 | 45 | 1008.1 |